sensor_id;sensor_type;location;lat;lon;timestamp;pressure;altitude;pressure_sealevel;temperature;humidity
73085;BME280;62974;49.460;10.892;2023-08-20T00:00:05;98100.34;;;24.48;85.51
73085;BME280;62974;49.460;10.892;2023-08-20T00:02:36;98094.03;;;24.47;84.89
73085;BME280;62974;49.460;10.892;2023-08-20T00:05:05;98103.63;;;24.45;85.51
73085;BME280;62974;49.460;10.892;2023-08-20T00:07:33;98102.28;;;24.42;86.15
73085;BME280;62974;49.460;10.892;2023-08-20T00:10:03;98111.19;;;24.19;91.01
73085;BME280;62974;49.460;10.892;2023-08-20T00:12:31;98102.34;;;24.27;89.85
73085;BME280;62974;49.460;10.892;2023-08-20T00:15:01;98100.09;;;24.39;85.24
73085;BME280;62974;49.460;10.892;2023-08-20T00:17:32;98113.03;;;24.33;87.39
73085;BME280;62974;49.460;10.892;2023-08-20T00:20:02;98104.22;;;24.37;85.21
73085;BME280;62974;49.460;10.892;2023-08-20T00:22:36;98102.88;;;24.34;85.61
73085;BME280;62974;49.460;10.892;2023-08-20T00:25:06;98094.63;;;24.34;84.73
73085;BME280;62974;49.460;10.892;2023-08-20T00:27:34;98095.72;;;24.33;85.43
73085;BME280;62974;49.460;10.892;2023-08-20T00:30:03;98092.47;;;24.31;85.17
73085;BME280;62974;49.460;10.892;2023-08-20T00:32:31;98104.34;;;24.16;90.49
73085;BME280;62974;49.460;10.892;2023-08-20T00:34:59;98104.53;;;24.25;86.70
73085;BME280;62974;49.460;10.892;2023-08-20T00:37:26;98090.81;;;24.25;85.57
73085;BME280;62974;49.460;10.892;2023-08-20T00:39:54;98102.94;;;24.24;86.05
73085;BME280;62974;49.460;10.892;2023-08-20T00:42:23;98104.03;;;24.23;85.87
73085;BME280;62974;49.460;10.892;2023-08-20T00:44:52;98115.56;;;24.20;87.10
73085;BME280;62974;49.460;10.892;2023-08-20T00:47:20;98099.38;;;24.18;86.44
73085;BME280;62974;49.460;10.892;2023-08-20T00:49:48;98105.44;;;24.15;85.58
73085;BME280;62974;49.460;10.892;2023-08-20T00:52:16;98096.38;;;24.15;85.60
73085;BME280;62974;49.460;10.892;2023-08-20T00:54:45;98105.97;;;24.12;85.91
73085;BME280;62974;49.460;10.892;2023-08-20T00:57:13;98108.97;;;24.11;86.33
73085;BME280;62974;49.460;10.892;2023-08-20T00:59:43;98113.63;;;24.10;85.86
73085;BME280;62974;49.460;10.892;2023-08-20T01:02:11;98111.16;;;24.09;86.12
73085;BME280;62974;49.460;10.892;2023-08-20T01:04:39;98111.72;;;24.06;86.37
73085;BME280;62974;49.460;10.892;2023-08-20T01:07:13;98114.78;;;24.04;86.56
73085;BME280;62974;49.460;10.892;2023-08-20T01:09:50;98111.19;;;24.04;86.02
73085;BME280;62974;49.460;10.892;2023-08-20T01:12:19;98109.28;;;23.99;86.70
73085;BME280;62974;49.460;10.892;2023-08-20T01:14:48;98114.78;;;23.99;86.17
73085;BME280;62974;49.460;10.892;2023-08-20T01:17:16;98115.03;;;23.98;86.49
73085;BME280;62974;49.460;10.892;2023-08-20T01:19:43;98110.38;;;23.93;86.49
73085;BME280;62974;49.460;10.892;2023-08-20T01:22:28;98116.72;;;23.94;86.34
73085;BME280;62974;49.460;10.892;2023-08-20T01:25:05;98117.28;;;23.91;86.61
73085;BME280;62974;49.460;10.892;2023-08-20T01:27:43;98114.25;;;23.87;86.55
73085;BME280;62974;49.460;10.892;2023-08-20T01:30:14;98116.19;;;23.86;86.74
73085;BME280;62974;49.460;10.892;2023-08-20T01:32:43;98117.28;;;23.85;86.12
73085;BME280;62974;49.460;10.892;2023-08-20T01:35:11;98119.50;;;23.83;86.57
73085;BME280;62974;49.460;10.892;2023-08-20T01:37:40;98115.34;;;23.81;86.76
73085;BME280;62974;49.460;10.892;2023-08-20T01:40:08;98114.28;;;23.77;87.70
73085;BME280;62974;49.460;10.892;2023-08-20T01:42:37;98118.66;;;23.78;87.09
73085;BME280;62974;49.460;10.892;2023-08-20T01:45:05;98130.19;;;23.75;86.83
73085;BME280;62974;49.460;10.892;2023-08-20T01:47:35;98124.16;;;23.73;87.20
73085;BME280;62974;49.460;10.892;2023-08-20T01:50:03;98126.63;;;23.69;87.82
73085;BME280;62974;49.460;10.892;2023-08-20T01:52:33;98128.53;;;23.69;87.44
73085;BME280;62974;49.460;10.892;2023-08-20T01:55:06;98127.75;;;23.68;87.45
73085;BME280;62974;49.460;10.892;2023-08-20T01:57:34;98130.75;;;23.67;87.42
73085;BME280;62974;49.460;10.892;2023-08-20T02:00:02;98133.50;;;23.62;87.53
73085;BME280;62974;49.460;10.892;2023-08-20T02:02:31;98135.16;;;23.63;87.05
73085;BME280;62974;49.460;10.892;2023-08-20T02:05:00;98131.59;;;23.62;87.37
73085;BME280;62974;49.460;10.892;2023-08-20T02:07:28;98135.16;;;23.58;87.49
73085;BME280;62974;49.460;10.892;2023-08-20T02:09:55;98138.19;;;23.56;87.37
73085;BME280;62974;49.460;10.892;2023-08-20T02:12:24;98144.75;;;23.55;87.92
73085;BME280;62974;49.460;10.892;2023-08-20T02:14:52;98137.09;;;23.52;87.98
73085;BME280;62974;49.460;10.892;2023-08-20T02:17:20;98142.00;;;23.50;87.54
73085;BME280;62974;49.460;10.892;2023-08-20T02:19:48;98141.19;;;23.50;87.78
73085;BME280;62974;49.460;10.892;2023-08-20T02:22:16;98139.56;;;23.49;87.80
73085;BME280;62974;49.460;10.892;2023-08-20T02:24:45;98139.00;;;23.47;87.46
73085;BME280;62974;49.460;10.892;2023-08-20T02:27:13;98136.81;;;23.44;87.90
73085;BME280;62974;49.460;10.892;2023-08-20T02:29:40;98142.84;;;23.40;87.67
73085;BME280;62974;49.460;10.892;2023-08-20T02:32:08;98144.75;;;23.40;87.50
73085;BME280;62974;49.460;10.892;2023-08-20T02:34:35;98145.28;;;23.37;88.05
73085;BME280;62974;49.460;10.892;2023-08-20T02:37:03;98146.09;;;23.37;87.71
73085;BME280;62974;49.460;10.892;2023-08-20T02:39:32;98139.25;;;23.35;88.16
73085;BME280;62974;49.460;10.892;2023-08-20T02:42:00;98143.09;;;23.34;88.04
73085;BME280;62974;49.460;10.892;2023-08-20T02:44:27;98129.94;;;23.31;87.69
73085;BME280;62974;49.460;10.892;2023-08-20T02:46:55;98137.31;;;23.25;89.93
73085;BME280;62974;49.460;10.892;2023-08-20T02:49:22;98131.56;;;23.27;87.89
73085;BME280;62974;49.460;10.892;2023-08-20T02:51:50;98139.53;;;23.28;87.92
73085;BME280;62974;49.460;10.892;2023-08-20T02:54:18;98134.88;;;23.24;88.41
73085;BME280;62974;49.460;10.892;2023-08-20T02:56:48;98131.28;;;23.18;89.05
73085;BME280;62974;49.460;10.892;2023-08-20T02:59:15;98135.94;;;23.18;88.89
73085;BME280;62974;49.460;10.892;2023-08-20T03:01:43;98129.09;;;23.15;89.14
73085;BME280;62974;49.460;10.892;2023-08-20T03:04:11;98127.19;;;23.16;88.78
73085;BME280;62974;49.460;10.892;2023-08-20T03:06:38;98126.38;;;23.15;88.49
73085;BME280;62974;49.460;10.892;2023-08-20T03:09:06;98137.06;;;23.12;89.20
73085;BME280;62974;49.460;10.892;2023-08-20T03:11:33;98135.66;;;23.09;89.11
73085;BME280;62974;49.460;10.892;2023-08-20T03:14:02;98130.19;;;23.09;88.58
73085;BME280;62974;49.460;10.892;2023-08-20T03:16:30;98130.75;;;23.06;88.98
73085;BME280;62974;49.460;10.892;2023-08-20T03:18:58;98145.00;;;23.03;89.24
73085;BME280;62974;49.460;10.892;2023-08-20T03:21:25;98143.63;;;23.01;88.56
73085;BME280;62974;49.460;10.892;2023-08-20T03:23:52;98143.88;;;22.99;89.22
73085;BME280;62974;49.460;10.892;2023-08-20T03:26:20;98149.91;;;22.96;88.93
73085;BME280;62974;49.460;10.892;2023-08-20T03:28:48;98148.00;;;22.97;89.05
73085;BME280;62974;49.460;10.892;2023-08-20T03:31:17;98138.38;;;22.94;88.99
73085;BME280;62974;49.460;10.892;2023-08-20T03:33:44;98141.69;;;22.91;89.01
73085;BME280;62974;49.460;10.892;2023-08-20T03:36:12;98143.31;;;22.87;89.74
73085;BME280;62974;49.460;10.892;2023-08-20T03:38:39;98143.06;;;22.88;89.03
73085;BME280;62974;49.460;10.892;2023-08-20T03:41:07;98141.41;;;22.87;88.72
73085;BME280;62974;49.460;10.892;2023-08-20T03:43:34;98140.84;;;22.85;88.77
73085;BME280;62974;49.460;10.892;2023-08-20T03:46:02;98143.59;;;22.80;89.39
73085;BME280;62974;49.460;10.892;2023-08-20T03:48:31;98144.41;;;22.81;89.02
73085;BME280;62974;49.460;10.892;2023-08-20T03:50:59;98146.31;;;22.80;88.43
73085;BME280;62974;49.460;10.892;2023-08-20T03:53:26;98141.09;;;22.79;89.15
73085;BME280;62974;49.460;10.892;2023-08-20T03:55:54;98146.31;;;22.80;88.99
73085;BME280;62974;49.460;10.892;2023-08-20T03:58:21;98150.16;;;22.79;88.90
73085;BME280;62974;49.460;10.892;2023-08-20T04:00:49;98155.63;;;22.79;89.30
73085;BME280;62974;49.460;10.892;2023-08-20T04:03:17;98153.97;;;22.78;88.49
73085;BME280;62974;49.460;10.892;2023-08-20T04:05:51;98157.00;;;22.77;88.52
73085;BME280;62974;49.460;10.892;2023-08-20T04:08:18;98158.34;;;22.74;89.40
73085;BME280;62974;49.460;10.892;2023-08-20T04:10:46;98164.38;;;22.71;89.74
73085;BME280;62974;49.460;10.892;2023-08-20T04:13:13;98161.09;;;22.74;89.22
73085;BME280;62974;49.460;10.892;2023-08-20T04:15:42;98165.72;;;22.74;89.56
73085;BME280;62974;49.460;10.892;2023-08-20T04:18:10;98155.91;;;22.73;89.03
73085;BME280;62974;49.460;10.892;2023-08-20T04:20:37;98158.91;;;22.71;89.32
73085;BME280;62974;49.460;10.892;2023-08-20T04:23:06;98161.88;;;22.70;89.72
73085;BME280;62974;49.460;10.892;2023-08-20T04:25:34;98166.53;;;22.69;89.45
73085;BME280;62974;49.460;10.892;2023-08-20T04:28:02;98174.75;;;22.69;89.63
73085;BME280;62974;49.460;10.892;2023-08-20T04:30:29;98168.13;;;22.65;90.45
73085;BME280;62974;49.460;10.892;2023-08-20T04:32:57;98174.19;;;22.67;89.53
73085;BME280;62974;49.460;10.892;2023-08-20T04:35:25;98176.63;;;22.64;90.98
73085;BME280;62974;49.460;10.892;2023-08-20T04:37:53;98164.03;;;22.63;90.40
73085;BME280;62974;49.460;10.892;2023-08-20T04:40:22;98164.03;;;22.63;89.57
73085;BME280;62974;49.460;10.892;2023-08-20T04:42:50;98166.78;;;22.63;90.67
73085;BME280;62974;49.460;10.892;2023-08-20T04:45:18;98171.44;;;22.67;89.46
73085;BME280;62974;49.460;10.892;2023-08-20T04:47:46;98170.63;;;22.67;89.75
73085;BME280;62974;49.460;10.892;2023-08-20T04:50:14;98167.34;;;22.65;90.60
73085;BME280;62974;49.460;10.892;2023-08-20T04:52:46;98172.25;;;22.63;91.24
73085;BME280;62974;49.460;10.892;2023-08-20T04:55:13;98162.41;;;22.67;90.01
73085;BME280;62974;49.460;10.892;2023-08-20T04:57:43;98171.44;;;22.67;90.00
73085;BME280;62974;49.460;10.892;2023-08-20T05:00:11;98172.00;;;22.69;89.66
73085;BME280;62974;49.460;10.892;2023-08-20T05:02:39;98172.59;;;22.71;89.54
73085;BME280;62974;49.460;10.892;2023-08-20T05:05:07;98172.59;;;22.76;89.87
73085;BME280;62974;49.460;10.892;2023-08-20T05:07:35;98175.91;;;22.83;88.54
73085;BME280;62974;49.460;10.892;2023-08-20T05:10:04;98182.78;;;23.01;87.90
73085;BME280;62974;49.460;10.892;2023-08-20T05:12:32;98178.94;;;22.92;88.74
73085;BME280;62974;49.460;10.892;2023-08-20T05:15:01;98190.44;;;22.94;88.34
73085;BME280;62974;49.460;10.892;2023-08-20T05:17:29;98191.53;;;22.98;88.24
73085;BME280;62974;49.460;10.892;2023-08-20T05:19:57;98193.25;;;23.19;88.28
73085;BME280;62974;49.460;10.892;2023-08-20T05:22:24;98187.22;;;23.22;87.86
73085;BME280;62974;49.460;10.892;2023-08-20T05:24:52;98192.97;;;23.26;89.55
73085;BME280;62974;49.460;10.892;2023-08-20T05:27:19;98200.91;;;23.22;96.44
73085;BME280;62974;49.460;10.892;2023-08-20T05:29:47;98187.75;;;23.29;89.98
73085;BME280;62974;49.460;10.892;2023-08-20T05:32:16;98197.09;;;23.28;88.89
73085;BME280;62974;49.460;10.892;2023-08-20T05:34:44;98199.53;;;23.05;97.21
73085;BME280;62974;49.460;10.892;2023-08-20T05:37:11;98189.66;;;23.14;89.16
73085;BME280;62974;49.460;10.892;2023-08-20T05:39:40;98194.13;;;22.53;100.00
73085;BME280;62974;49.460;10.892;2023-08-20T05:42:08;98192.47;;;23.59;100.00
73085;BME280;62974;49.460;10.892;2023-08-20T05:44:36;98189.44;;;23.40;90.03
73085;BME280;62974;49.460;10.892;2023-08-20T05:47:06;98199.06;;;23.58;98.61
73085;BME280;62974;49.460;10.892;2023-08-20T05:49:34;98197.91;;;23.39;89.42
73085;BME280;62974;49.460;10.892;2023-08-20T05:52:02;98197.41;;;23.67;91.82
73085;BME280;62974;49.460;10.892;2023-08-20T05:54:30;98199.63;;;23.60;90.09
73085;BME280;62974;49.460;10.892;2023-08-20T05:56:58;98197.69;;;23.61;93.65
73085;BME280;62974;49.460;10.892;2023-08-20T05:59:26;98202.09;;;23.57;99.00
73085;BME280;62974;49.460;10.892;2023-08-20T06:01:53;98205.06;;;23.45;98.37
73085;BME280;62974;49.460;10.892;2023-08-20T06:04:21;98200.16;;;23.52;92.64
73085;BME280;62974;49.460;10.892;2023-08-20T06:06:50;98196.31;;;23.58;93.33
73085;BME280;62974;49.460;10.892;2023-08-20T06:09:18;98183.66;;;23.42;95.48
73085;BME280;62974;49.460;10.892;2023-08-20T06:11:45;98191.66;;;23.49;100.00
73085;BME280;62974;49.460;10.892;2023-08-20T06:14:13;98193.53;;;23.38;100.00
73085;BME280;62974;49.460;10.892;2023-08-20T06:16:40;98189.47;;;23.56;99.05
73085;BME280;62974;49.460;10.892;2023-08-20T06:19:08;98183.44;;;23.49;99.60
73085;BME280;62974;49.460;10.892;2023-08-20T06:21:36;98185.06;;;23.55;97.57
73085;BME280;62974;49.460;10.892;2023-08-20T06:24:05;98185.06;;;23.50;100.00
73085;BME280;62974;49.460;10.892;2023-08-20T06:26:33;98188.03;;;23.18;100.00
73085;BME280;62974;49.460;10.892;2023-08-20T06:29:01;98195.50;;;23.48;100.00
73085;BME280;62974;49.460;10.892;2023-08-20T06:31:28;98188.09;;;23.48;100.00
73085;BME280;62974;49.460;10.892;2023-08-20T06:33:56;98186.19;;;23.49;100.00
73085;BME280;62974;49.460;10.892;2023-08-20T06:36:24;98193.00;;;23.61;100.00
73085;BME280;62974;49.460;10.892;2023-08-20T06:38:52;98195.47;;;23.58;100.00
73085;BME280;62974;49.460;10.892;2023-08-20T06:41:21;98199.28;;;23.41;100.00
73085;BME280;62974;49.460;10.892;2023-08-20T06:43:48;98203.44;;;23.49;100.00
73085;BME280;62974;49.460;10.892;2023-08-20T06:46:16;98198.47;;;23.31;100.00
73085;BME280;62974;49.460;10.892;2023-08-20T06:48:43;98202.34;;;23.50;100.00
73085;BME280;62974;49.460;10.892;2023-08-20T06:51:11;98200.69;;;23.59;100.00
73085;BME280;62974;49.460;10.892;2023-08-20T06:53:39;98200.69;;;23.69;100.00
73085;BME280;62974;49.460;10.892;2023-08-20T06:56:07;98207.00;;;23.80;100.00
73085;BME280;62974;49.460;10.892;2023-08-20T06:58:38;98205.63;;;23.77;100.00
73085;BME280;62974;49.460;10.892;2023-08-20T07:01:06;98212.75;;;23.83;100.00
73085;BME280;62974;49.460;10.892;2023-08-20T07:03:40;98204.78;;;23.82;100.00
73085;BME280;62974;49.460;10.892;2023-08-20T07:06:09;98213.31;;;23.91;100.00
73085;BME280;62974;49.460;10.892;2023-08-20T07:08:37;98210.56;;;23.91;100.00
73085;BME280;62974;49.460;10.892;2023-08-20T07:11:06;98211.38;;;23.96;100.00
73085;BME280;62974;49.460;10.892;2023-08-20T07:13:34;98218.75;;;24.06;100.00
73085;BME280;62974;49.460;10.892;2023-08-20T07:16:03;98223.41;;;24.05;99.11
73085;BME280;62974;49.460;10.892;2023-08-20T07:18:31;98230.28;;;24.13;100.00
73085;BME280;62974;49.460;10.892;2023-08-20T07:20:58;98233.59;;;24.15;98.89
73085;BME280;62974;49.460;10.892;2023-08-20T07:23:26;98223.16;;;24.27;100.00
73085;BME280;62974;49.460;10.892;2023-08-20T07:26:03;98224.72;;;24.53;100.00
73085;BME280;62974;49.460;10.892;2023-08-20T07:28:34;98222.00;;;24.48;100.00
73085;BME280;62974;49.460;10.892;2023-08-20T07:31:21;98224.22;;;24.36;100.00
73085;BME280;62974;49.460;10.892;2023-08-20T07:33:50;98233.19;;;24.62;100.00
73085;BME280;62974;49.460;10.892;2023-08-20T07:36:18;98241.13;;;24.68;97.58
73085;BME280;62974;49.460;10.892;2023-08-20T07:38:48;98236.50;;;24.59;95.57
73085;BME280;62974;49.460;10.892;2023-08-20T07:41:17;98227.50;;;24.43;98.38
73085;BME280;62974;49.460;10.892;2023-08-20T07:43:46;98240.41;;;24.43;97.90
73085;BME280;62974;49.460;10.892;2023-08-20T07:46:15;98234.88;;;24.53;95.92
73085;BME280;62974;49.460;10.892;2023-08-20T07:48:44;98237.00;;;24.71;96.71
73085;BME280;62974;49.460;10.892;2023-08-20T07:51:12;98235.38;;;24.65;98.74
73085;BME280;62974;49.460;10.892;2023-08-20T07:53:39;98237.00;;;24.76;99.14
73085;BME280;62974;49.460;10.892;2023-08-20T07:56:07;98240.56;;;24.87;98.31
73085;BME280;62974;49.460;10.892;2023-08-20T07:58:35;98235.53;;;25.04;96.48
73085;BME280;62974;49.460;10.892;2023-08-20T08:01:02;98237.22;;;24.95;95.43
73085;BME280;62974;49.460;10.892;2023-08-20T08:03:30;98232.47;;;25.05;93.13
73085;BME280;62974;49.460;10.892;2023-08-20T08:05:59;98236.91;;;25.45;93.78
73085;BME280;62974;49.460;10.892;2023-08-20T08:08:27;98236.41;;;25.38;91.72
73085;BME280;62974;49.460;10.892;2023-08-20T08:10:54;98229.72;;;25.49;93.72
73085;BME280;62974;49.460;10.892;2023-08-20T08:13:23;98240.38;;;25.66;93.68
73085;BME280;62974;49.460;10.892;2023-08-20T08:15:50;98233.78;;;25.62;91.95
73085;BME280;62974;49.460;10.892;2023-08-20T08:18:19;98238.97;;;25.68;91.63
73085;BME280;62974;49.460;10.892;2023-08-20T08:20:47;98249.56;;;25.46;92.92
73085;BME280;62974;49.460;10.892;2023-08-20T08:23:16;98250.03;;;25.63;92.17
73085;BME280;62974;49.460;10.892;2023-08-20T08:25:43;98246.84;;;25.80;95.00
73085;BME280;62974;49.460;10.892;2023-08-20T08:28:11;98251.47;;;25.85;91.18
73085;BME280;62974;49.460;10.892;2023-08-20T08:30:38;98254.88;;;26.05;90.33
73085;BME280;62974;49.460;10.892;2023-08-20T08:33:06;98256.41;;;26.22;92.45
73085;BME280;62974;49.460;10.892;2023-08-20T08:35:34;98258.31;;;26.26;91.50
73085;BME280;62974;49.460;10.892;2023-08-20T08:38:03;98260.44;;;26.34;85.92
73085;BME280;62974;49.460;10.892;2023-08-20T08:40:33;98260.28;;;26.21;86.46
73085;BME280;62974;49.460;10.892;2023-08-20T08:43:01;98263.69;;;26.36;84.65
73085;BME280;62974;49.460;10.892;2023-08-20T08:45:29;98258.38;;;26.69;83.46
73085;BME280;62974;49.460;10.892;2023-08-20T08:48:02;98252.41;;;26.61;81.06
73085;BME280;62974;49.460;10.892;2023-08-20T08:50:31;98271.53;;;25.90;86.91
73085;BME280;62974;49.460;10.892;2023-08-20T08:52:59;98255.28;;;26.51;85.81
73085;BME280;62974;49.460;10.892;2023-08-20T08:55:26;98252.66;;;26.65;84.24
73085;BME280;62974;49.460;10.892;2023-08-20T08:57:55;98256.03;;;27.04;83.31
73085;BME280;62974;49.460;10.892;2023-08-20T09:00:23;98255.75;;;27.43;89.32
73085;BME280;62974;49.460;10.892;2023-08-20T09:02:50;98254.66;;;27.07;84.98
73085;BME280;62974;49.460;10.892;2023-08-20T09:05:18;98257.69;;;27.05;79.75
73085;BME280;62974;49.460;10.892;2023-08-20T09:07:46;98260.88;;;26.94;79.12
73085;BME280;62974;49.460;10.892;2023-08-20T09:10:15;98251.41;;;27.00;75.22
73085;BME280;62974;49.460;10.892;2023-08-20T09:12:43;98244.13;;;27.09;69.88
73085;BME280;62974;49.460;10.892;2023-08-20T09:15:12;98250.53;;;27.04;73.45
73085;BME280;62974;49.460;10.892;2023-08-20T09:17:41;98253.22;;;27.09;74.10
73085;BME280;62974;49.460;10.892;2023-08-20T09:20:09;98252.25;;;27.19;73.61
73085;BME280;62974;49.460;10.892;2023-08-20T09:22:37;98233.88;;;27.52;65.26
73085;BME280;62974;49.460;10.892;2023-08-20T09:25:05;98244.22;;;27.79;68.16
73085;BME280;62974;49.460;10.892;2023-08-20T09:27:38;98246.41;;;27.95;65.38
73085;BME280;62974;49.460;10.892;2023-08-20T09:30:07;98255.81;;;27.62;69.86
73085;BME280;62974;49.460;10.892;2023-08-20T09:32:36;98253.78;;;27.68;69.45
73085;BME280;62974;49.460;10.892;2023-08-20T09:35:04;98255.56;;;27.77;70.70
73085;BME280;62974;49.460;10.892;2023-08-20T09:37:33;98245.84;;;27.80;69.07
73085;BME280;62974;49.460;10.892;2023-08-20T09:40:02;98249.63;;;27.70;67.82
73085;BME280;62974;49.460;10.892;2023-08-20T09:42:30;98240.88;;;28.14;66.17
73085;BME280;62974;49.460;10.892;2023-08-20T09:45:00;98252.03;;;27.90;70.81
73085;BME280;62974;49.460;10.892;2023-08-20T09:47:31;98253.13;;;27.57;72.54
73085;BME280;62974;49.460;10.892;2023-08-20T09:50:08;98254.00;;;28.22;71.97
73085;BME280;62974;49.460;10.892;2023-08-20T09:52:39;98243.50;;;28.38;66.34
73085;BME280;62974;49.460;10.892;2023-08-20T09:55:08;98242.47;;;28.01;67.60
73085;BME280;62974;49.460;10.892;2023-08-20T09:57:38;98253.66;;;28.10;69.08
73085;BME280;62974;49.460;10.892;2023-08-20T10:00:10;98267.59;;;28.00;72.03
73085;BME280;62974;49.460;10.892;2023-08-20T10:02:39;98248.84;;;28.89;70.25
73085;BME280;62974;49.460;10.892;2023-08-20T10:05:10;98239.38;;;28.63;63.19
73085;BME280;62974;49.460;10.892;2023-08-20T10:07:38;98241.56;;;28.38;65.38
73085;BME280;62974;49.460;10.892;2023-08-20T10:10:07;98247.81;;;28.12;67.84
73085;BME280;62974;49.460;10.892;2023-08-20T10:12:37;98231.44;;;28.61;60.71
73085;BME280;62974;49.460;10.892;2023-08-20T10:15:07;98250.03;;;28.42;66.64
73085;BME280;62974;49.460;10.892;2023-08-20T10:17:37;98256.94;;;28.72;66.92
73085;BME280;62974;49.460;10.892;2023-08-20T10:20:06;98237.44;;;28.63;64.32
73085;BME280;62974;49.460;10.892;2023-08-20T10:22:37;98243.16;;;28.26;65.58
73085;BME280;62974;49.460;10.892;2023-08-20T10:25:06;98243.31;;;28.16;65.15
73085;BME280;62974;49.460;10.892;2023-08-20T10:27:35;98229.78;;;28.60;60.49
73085;BME280;62974;49.460;10.892;2023-08-20T10:30:08;98239.31;;;28.95;62.24
73085;BME280;62974;49.460;10.892;2023-08-20T10:32:44;98249.16;;;28.87;64.68
73085;BME280;62974;49.460;10.892;2023-08-20T10:35:14;98260.69;;;28.48;67.83
73085;BME280;62974;49.460;10.892;2023-08-20T10:38:01;98255.19;;;28.76;65.27
73085;BME280;62974;49.460;10.892;2023-08-20T10:43:29;98254.50;;;28.70;64.06
73085;BME280;62974;49.460;10.892;2023-08-20T10:46:08;98259.63;;;28.77;66.12
73085;BME280;62974;49.460;10.892;2023-08-20T10:48:37;98240.72;;;29.20;63.32
73085;BME280;62974;49.460;10.892;2023-08-20T10:51:07;98245.25;;;29.29;65.13
73085;BME280;62974;49.460;10.892;2023-08-20T10:53:36;98243.88;;;29.27;63.64
73085;BME280;62974;49.460;10.892;2023-08-20T10:56:08;98237.56;;;29.13;61.23
73085;BME280;62974;49.460;10.892;2023-08-20T10:58:38;98234.75;;;29.26;61.13
73085;BME280;62974;49.460;10.892;2023-08-20T11:01:18;98232.81;;;29.27;59.52
73085;BME280;62974;49.460;10.892;2023-08-20T11:03:46;98234.19;;;29.29;60.97
73085;BME280;62974;49.460;10.892;2023-08-20T11:06:17;98230.13;;;29.49;60.61
73085;BME280;62974;49.460;10.892;2023-08-20T11:08:46;98221.75;;;29.63;58.43
73085;BME280;62974;49.460;10.892;2023-08-20T11:11:14;98223.28;;;29.69;60.01
73085;BME280;62974;49.460;10.892;2023-08-20T11:13:42;98223.88;;;29.44;60.69
73085;BME280;62974;49.460;10.892;2023-08-20T11:16:10;98221.66;;;29.32;62.08
73085;BME280;62974;49.460;10.892;2023-08-20T11:18:38;98216.41;;;29.66;60.25
73085;BME280;62974;49.460;10.892;2023-08-20T11:21:05;98216.53;;;29.61;60.78
73085;BME280;62974;49.460;10.892;2023-08-20T11:23:33;98209.66;;;29.59;58.10
73085;BME280;62974;49.460;10.892;2023-08-20T11:26:02;98206.66;;;29.69;58.03
73085;BME280;62974;49.460;10.892;2023-08-20T11:28:30;98233.16;;;29.12;63.01
73085;BME280;62974;49.460;10.892;2023-08-20T11:30:57;98216.53;;;29.61;58.18
73085;BME280;62974;49.460;10.892;2023-08-20T11:33:25;98229.56;;;29.83;62.43
73085;BME280;62974;49.460;10.892;2023-08-20T11:35:53;98222.16;;;29.70;63.58
73085;BME280;62974;49.460;10.892;2023-08-20T11:38:23;98206.84;;;30.17;60.43
73085;BME280;62974;49.460;10.892;2023-08-20T11:40:51;98218.63;;;30.00;62.65
73085;BME280;62974;49.460;10.892;2023-08-20T11:43:21;98213.69;;;30.19;62.98
73085;BME280;62974;49.460;10.892;2023-08-20T11:45:49;98215.34;;;29.98;59.09
73085;BME280;62974;49.460;10.892;2023-08-20T11:48:17;98211.91;;;30.23;60.95
73085;BME280;62974;49.460;10.892;2023-08-20T11:50:45;98214.06;;;29.82;61.02
73085;BME280;62974;49.460;10.892;2023-08-20T11:53:12;98221.88;;;29.58;62.62
73085;BME280;62974;49.460;10.892;2023-08-20T11:55:40;98201.88;;;29.61;57.33
73085;BME280;62974;49.460;10.892;2023-08-20T11:58:11;98198.34;;;29.91;56.25
73085;BME280;62974;49.460;10.892;2023-08-20T12:00:40;98194.34;;;29.97;55.93
73085;BME280;62974;49.460;10.892;2023-08-20T12:03:09;98197.41;;;30.49;55.51
73085;BME280;62974;49.460;10.892;2023-08-20T12:05:41;98197.94;;;30.68;59.74
73085;BME280;62974;49.460;10.892;2023-08-20T12:08:15;98201.50;;;30.60;61.04
73085;BME280;62974;49.460;10.892;2023-08-20T12:10:43;98184.94;;;30.07;55.03
73085;BME280;62974;49.460;10.892;2023-08-20T12:13:10;98193.41;;;30.10;57.70
73085;BME280;62974;49.460;10.892;2023-08-20T12:15:40;98179.44;;;30.46;53.80
73085;BME280;62974;49.460;10.892;2023-08-20T12:18:07;98185.66;;;30.21;54.95
73085;BME280;62974;49.460;10.892;2023-08-20T12:20:36;98186.38;;;30.35;53.79
73085;BME280;62974;49.460;10.892;2023-08-20T12:23:06;98175.81;;;30.85;53.36
73085;BME280;62974;49.460;10.892;2023-08-20T12:25:35;98165.97;;;30.70;50.60
73085;BME280;62974;49.460;10.892;2023-08-20T12:28:04;98186.28;;;30.18;55.57
73085;BME280;62974;49.460;10.892;2023-08-20T12:30:32;98176.09;;;30.36;54.93
73085;BME280;62974;49.460;10.892;2023-08-20T12:33:06;98167.13;;;30.69;53.38
73085;BME280;62974;49.460;10.892;2023-08-20T12:35:34;98167.09;;;30.61;53.21
73085;BME280;62974;49.460;10.892;2023-08-20T12:38:02;98174.16;;;30.36;54.04
73085;BME280;62974;49.460;10.892;2023-08-20T12:40:31;98166.31;;;30.77;52.28
73085;BME280;62974;49.460;10.892;2023-08-20T12:42:58;98157.63;;;30.53;51.47
73085;BME280;62974;49.460;10.892;2023-08-20T12:45:26;98165.19;;;30.87;51.75
73085;BME280;62974;49.460;10.892;2023-08-20T12:47:53;98156.38;;;30.94;50.09
73085;BME280;62974;49.460;10.892;2023-08-20T12:50:22;98172.53;;;30.83;53.90
73085;BME280;62974;49.460;10.892;2023-08-20T12:52:51;98147.22;;;30.67;49.31
73085;BME280;62974;49.460;10.892;2023-08-20T12:55:19;98146.34;;;31.32;47.73
73085;BME280;62974;49.460;10.892;2023-08-20T12:57:52;98162.06;;;30.71;51.30